Time;durP1;ratioP1;P1;durP2;ratioP2;P2;SDS_P1;SDS_P2;PMS_P1;PMS_P2;Temp;Humidity;BMP_temperature;BMP_pressure;BME280_temperature;BME280_humidity;BME280_pressure;Samples;Min_cycle;Max_cycle;Signal;HPM_P1;HPM_P2
2022/07/01 00:01:40;;;;;;;11.47;8.70;;;19.10;99.90;18.60;100155;;;;575852;245;24108;-80
2022/07/01 00:04:05;;;;;;;10.23;8.93;;;19.10;99.90;18.60;100158;;;;575518;245;24086;-80
2022/07/01 00:06:33;;;;;;;10.20;9.17;;;19.10;99.90;18.60;100153;;;;586413;244;24077;-81
2022/07/01 00:09:01;;;;;;;13.23;9.60;;;19.10;99.90;18.60;100155;;;;575901;245;24120;-83
2022/07/01 00:11:29;;;;;;;11.40;10.17;;;19.00;99.90;18.50;100151;;;;586608;244;24104;-81
2022/07/01 00:13:57;;;;;;;12.57;9.70;;;19.00;99.90;18.50;100147;;;;580774;247;24114;-81
2022/07/01 00:16:25;;;;;;;9.50;8.60;;;19.00;99.90;18.50;100153;;;;565718;249;24116;-81
2022/07/01 00:18:53;;;;;;;9.50;8.60;;;19.00;99.90;18.60;100174;;;;574244;249;24106;-82
2022/07/01 00:21:22;;;;;;;11.73;9.20;;;19.10;99.90;18.60;100172;;;;565201;250;24138;-81
2022/07/01 00:23:51;;;;;;;9.83;8.83;;;19.10;99.90;18.60;100160;;;;586468;245;24066;-83
2022/07/01 00:26:22;;;;;;;10.40;9.33;;;19.20;99.90;18.60;100167;;;;570874;250;24098;-80
2022/07/01 00:28:46;;;;;;;10.37;9.37;;;19.20;99.90;18.70;100179;;;;564135;250;24112;-84
2022/07/01 00:31:14;;;;;;;14.43;9.63;;;19.10;99.90;18.70;100175;;;;576060;245;24071;-79
2022/07/01 00:33:42;;;;;;;10.93;9.70;;;19.20;99.90;18.70;100183;;;;569814;247;24141;-81
2022/07/01 00:36:10;;;;;;;11.70;9.50;;;19.20;99.90;18.70;100197;;;;565585;249;24111;-81
2022/07/01 00:38:38;;;;;;;13.63;9.60;;;19.20;99.90;18.70;100196;;;;571812;247;24115;-83
2022/07/01 00:41:06;;;;;;;12.87;9.57;;;19.20;99.90;18.70;100207;;;;565238;249;24093;-84
2022/07/01 00:43:41;;;;;;;11.03;10.00;;;19.20;99.90;18.70;100210;;;;571891;247;24083;-83
2022/07/01 00:46:08;;;;;;;10.87;9.03;;;19.20;99.90;18.70;100222;;;;584108;245;24083;-82
2022/07/01 00:48:36;;;;;;;11.53;9.97;;;19.20;99.90;18.60;100217;;;;584071;245;24144;-83
2022/07/01 00:51:04;;;;;;;11.23;10.13;;;19.10;99.90;18.60;100220;;;;574192;245;24134;-82
2022/07/01 00:53:29;;;;;;;13.80;10.40;;;19.10;99.90;18.60;100219;;;;575265;245;24116;-82
2022/07/01 00:56:00;;;;;;;10.43;9.43;;;19.10;99.90;18.60;100222;;;;571608;247;24124;-82
2022/07/01 00:58:26;;;;;;;12.13;10.17;;;19.10;99.90;18.50;100220;;;;564761;250;24129;-82
2022/07/01 01:00:58;;;;;;;12.40;10.83;;;19.00;99.90;18.50;100211;;;;575242;245;24073;-80
2022/07/01 01:03:26;;;;;;;12.47;10.40;;;19.00;99.90;18.50;100206;;;;564563;250;24239;-81
2022/07/01 01:05:56;;;;;;;13.30;11.13;;;19.00;99.90;18.50;100185;;;;564518;250;24113;-82
2022/07/01 01:08:25;;;;;;;13.23;10.40;;;19.00;99.90;18.50;100192;;;;576545;245;24128;-82
2022/07/01 01:10:53;;;;;;;16.60;11.40;;;19.00;99.90;18.40;100198;;;;572620;247;24080;-82
2022/07/01 01:13:18;;;;;;;12.47;11.07;;;18.90;99.90;18.40;100197;;;;565678;249;24176;-81
2022/07/01 01:15:46;;;;;;;12.10;10.87;;;18.90;99.90;18.40;100200;;;;575968;245;24066;-81
2022/07/01 01:18:14;;;;;;;13.70;11.97;;;18.90;99.90;18.30;100204;;;;575839;245;24125;-83
2022/07/01 01:20:42;;;;;;;19.93;12.23;;;18.80;99.90;18.30;100214;;;;572262;247;24114;-82
2022/07/01 01:23:10;;;;;;;16.60;12.10;;;18.80;99.90;18.20;100219;;;;575887;245;24082;-83
2022/07/01 01:25:41;;;;;;;14.13;11.87;;;18.80;99.90;18.20;100222;;;;575921;245;24089;-83
2022/07/01 01:28:07;;;;;;;13.83;11.93;;;18.70;99.90;18.20;100220;;;;572022;247;24126;-82
2022/07/01 01:30:36;;;;;;;14.67;11.60;;;18.70;99.90;18.20;100232;;;;575793;245;24100;-82
2022/07/01 01:33:07;;;;;;;15.20;12.90;;;18.70;99.90;18.20;100237;;;;575447;245;24075;-80
2022/07/01 01:35:37;;;;;;;16.37;12.33;;;18.70;99.90;18.20;100245;;;;571751;247;24105;-80
2022/07/01 01:38:02;;;;;;;16.37;12.47;;;18.60;99.90;18.10;100234;;;;575462;245;24096;-79
2022/07/01 01:40:31;;;;;;;16.70;11.87;;;18.60;99.90;18.10;100232;;;;575544;245;24070;-80
2022/07/01 01:42:58;;;;;;;17.30;11.97;;;18.60;99.90;18.10;100235;;;;571518;247;24092;-79
2022/07/01 01:45:26;;;;;;;14.63;11.73;;;18.60;99.90;18.10;100243;;;;575061;245;24073;-80
2022/07/01 01:47:54;;;;;;;15.27;12.10;;;18.60;99.90;18.10;100247;;;;575004;245;24086;-80
2022/07/01 01:50:25;;;;;;;13.97;12.53;;;18.50;99.90;18.00;100228;;;;571394;247;24125;-78
2022/07/01 01:52:50;;;;;;;15.60;12.73;;;18.60;99.90;18.00;100234;;;;571777;247;24094;-79
2022/07/01 01:55:18;;;;;;;18.47;12.40;;;18.50;99.90;18.00;100232;;;;575606;245;24073;-79
2022/07/01 01:57:46;;;;;;;15.30;12.17;;;18.60;99.90;18.00;100235;;;;575521;245;24066;-80
2022/07/01 02:00:17;;;;;;;17.00;13.03;;;18.60;99.90;18.10;100234;;;;571697;247;24090;-80
2022/07/01 02:02:42;;;;;;;14.87;12.17;;;18.60;99.90;18.10;100234;;;;573633;247;24101;-81
2022/07/01 02:05:10;;;;;;;17.93;13.33;;;18.60;99.90;18.10;100228;;;;581192;245;24073;-81
2022/07/01 02:07:41;;;;;;;17.47;12.43;;;18.60;99.90;18.10;100223;;;;571633;247;24078;-81
2022/07/01 02:10:06;;;;;;;16.40;12.20;;;18.60;99.90;18.10;100228;;;;581102;242;25145;-83
2022/07/01 02:12:34;;;;;;;16.23;11.67;;;18.60;99.90;18.10;100232;;;;564066;250;24131;-81
2022/07/01 02:15:01;;;;;;;16.37;11.83;;;18.70;99.90;18.20;100230;;;;575023;245;24080;-80
2022/07/01 02:17:29;;;;;;;14.23;11.80;;;18.70;99.90;18.20;100232;;;;571318;247;24081;-80
2022/07/01 02:19:57;;;;;;;20.53;12.03;;;18.70;99.90;18.30;100241;;;;576547;245;24069;-81
2022/07/01 02:22:28;;;;;;;12.23;10.40;;;18.80;99.90;18.30;100252;;;;576333;245;24170;-81
2022/07/01 02:24:53;;;;;;;20.90;11.63;;;18.80;99.90;18.40;100252;;;;580890;247;24115;-81
2022/07/01 02:27:25;;;;;;;13.13;11.33;;;18.90;99.90;18.50;100265;;;;575943;245;24103;-80
2022/07/01 02:29:49;;;;;;;16.43;12.20;;;19.00;99.90;18.50;100251;;;;575471;245;24078;-79
2022/07/01 02:32:17;;;;;;;15.17;10.90;;;19.10;99.90;18.60;100262;;;;572185;247;24116;-80
2022/07/01 02:34:46;;;;;;;12.47;11.13;;;19.20;99.90;18.60;100249;;;;571664;247;24090;-80
2022/07/01 02:37:14;;;;;;;15.00;11.00;;;19.20;99.90;18.70;100253;;;;572048;247;24120;-83
2022/07/01 02:39:41;;;;;;;14.10;10.80;;;19.20;99.90;18.70;100239;;;;575481;245;24059;-81
2022/07/01 02:42:34;;;;;;;21.70;11.57;;;19.30;99.90;18.70;100239;;;;575517;245;24063;-82
2022/07/01 02:44:56;;;;;;;19.50;11.60;;;19.20;99.90;18.70;100240;;;;575210;245;24082;-80
2022/07/01 02:47:25;;;;;;;15.13;10.43;;;19.30;99.90;18.70;100239;;;;571852;247;24134;-80
2022/07/01 02:49:53;;;;;;;12.07;10.43;;;19.30;99.90;18.80;100234;;;;575317;245;24093;-81
2022/07/01 02:52:21;;;;;;;11.53;10.20;;;19.30;99.90;18.80;100232;;;;571550;247;24096;-81
2022/07/01 02:54:49;;;;;;;12.00;10.17;;;19.30;99.90;18.80;100232;;;;593057;242;24069;-81
2022/07/01 02:57:19;;;;;;;14.90;11.00;;;19.40;99.90;18.80;100235;;;;573281;250;24155;-82
2022/07/01 02:59:44;;;;;;;14.23;10.83;;;19.40;99.90;18.90;100225;;;;575274;245;24137;-81
2022/07/01 03:02:12;;;;;;;13.10;10.07;;;19.40;99.90;18.90;100222;;;;575520;245;24117;-82
2022/07/01 03:04:40;;;;;;;12.63;11.03;;;19.40;99.90;18.90;100225;;;;571807;247;24127;-81
2022/07/01 03:07:09;;;;;;;18.93;10.90;;;19.40;99.90;18.90;100216;;;;575505;245;24106;-81
2022/07/01 03:09:39;;;;;;;11.97;9.60;;;19.50;99.90;19.00;100219;;;;575429;245;24090;-80
2022/07/01 03:12:24;;;;;;;11.83;10.17;;;19.50;99.90;19.00;100212;;;;571571;247;24123;-82
2022/07/01 03:14:35;;;;;;;13.53;10.67;;;19.50;99.90;19.00;100206;;;;575614;245;24168;-81
2022/07/01 03:17:00;;;;;;;13.90;10.40;;;19.60;99.90;19.10;100202;;;;584117;241;24088;-84
2022/07/01 03:19:28;;;;;;;12.00;10.60;;;19.60;99.90;19.10;100188;;;;575487;245;24088;-84
2022/07/01 03:21:56;;;;;;;12.83;11.03;;;19.70;99.90;19.20;100198;;;;571842;247;24123;-80
2022/07/01 03:24:24;;;;;;;16.33;10.30;;;19.70;99.90;19.20;100187;;;;575105;245;24088;-82
2022/07/01 03:26:52;;;;;;;13.23;10.87;;;19.70;99.90;19.30;100189;;;;575107;245;24105;-83
2022/07/01 03:29:20;;;;;;;11.93;10.10;;;19.80;99.90;19.30;100187;;;;571330;245;24074;-83
2022/07/01 03:31:47;;;;;;;15.83;10.67;;;19.80;99.90;19.30;100183;;;;576583;245;24080;-83
2022/07/01 03:34:16;;;;;;;13.33;11.00;;;19.80;99.90;19.30;100191;;;;576095;245;24080;-82
2022/07/01 03:36:45;;;;;;;12.73;10.97;;;19.80;99.90;19.30;100186;;;;572402;247;24156;-82
2022/07/01 03:39:14;;;;;;;15.30;10.17;;;19.90;99.90;19.40;100185;;;;575809;245;24077;-81
2022/07/01 03:41:42;;;;;;;13.03;9.47;;;19.90;99.90;19.50;100179;;;;565511;250;24188;-83
2022/07/01 03:44:11;;;;;;;12.70;10.17;;;20.00;99.90;19.50;100170;;;;565362;250;24104;-80
2022/07/01 03:46:40;;;;;;;17.73;10.70;;;20.10;99.90;19.60;100170;;;;575441;245;24209;-81
2022/07/01 03:49:08;;;;;;;11.80;9.80;;;20.10;99.90;19.80;100162;;;;575396;244;24070;-82
2022/07/01 03:51:35;;;;;;;12.60;9.73;;;20.20;99.90;19.90;100160;;;;575663;245;24121;-81
2022/07/01 03:56:50;;;;;;;13.13;9.20;;;20.50;99.90;20.20;100160;;;;575329;245;24079;-80
2022/07/01 03:59:19;;;;;;;13.20;9.20;;;21.00;99.90;20.50;100169;;;;585673;245;24085;-81
2022/07/01 04:01:47;;;;;;;10.73;8.87;;;21.00;99.90;20.70;100177;;;;575250;245;23109;-81
2022/07/01 04:04:15;;;;;;;9.40;8.50;;;21.20;99.90;20.80;100172;;;;585679;245;23091;-80
2022/07/01 04:06:43;;;;;;;9.77;8.27;;;21.30;99.90;20.90;100174;;;;568922;247;24107;-80
2022/07/01 04:09:15;;;;;;;10.15;9.10;;;21.40;99.90;20.80;100173;;;;579020;242;35292;-80
2022/07/01 04:11:38;;;;;;;11.10;8.57;;;21.40;99.90;20.90;100166;;;;574687;245;24089;-80
2022/07/01 04:14:10;;;;;;;15.40;8.53;;;21.40;99.90;20.90;100170;;;;575255;245;24118;-80
2022/07/01 04:16:34;;;;;;;8.77;7.87;;;21.40;99.90;21.00;100179;;;;565820;250;24124;-82
2022/07/01 04:19:05;;;;;;;12.10;7.73;;;21.50;99.90;21.20;100175;;;;586869;245;23078;-80
2022/07/01 04:24:16;;;;;;;9.03;7.83;;;22.00;99.90;21.90;100172;;;;575041;245;24174;-81
2022/07/01 04:26:44;;;;;;;12.83;8.53;;;22.40;99.90;22.40;100178;;;;575279;245;24110;-79
2022/07/01 04:29:12;;;;;;;11.23;7.80;;;22.80;99.90;22.90;100185;;;;575185;245;24086;-80
2022/07/01 04:31:40;;;;;;;9.40;8.50;;;23.40;99.90;23.90;100185;;;;575267;245;24065;-80
2022/07/01 04:34:09;;;;;;;11.40;8.30;;;25.60;99.90;25.20;100181;;;;581942;245;24094;-80
2022/07/01 04:36:37;;;;;;;7.70;6.60;;;27.00;99.90;26.60;100183;;;;571512;247;24129;-80
2022/07/01 04:39:06;;;;;;;8.87;7.20;;;28.40;99.90;27.90;100177;;;;581015;242;24096;-80
2022/07/01 04:44:23;;;;;;;9.50;7.20;;;30.90;99.90;30.20;100180;;;;570327;247;23108;-81
2022/07/01 04:46:48;;;;;;;8.23;7.30;;;30.80;99.90;31.30;100191;;;;580530;244;23106;-81
2022/07/01 04:49:16;;;;;;;10.13;7.20;;;32.00;99.90;32.10;100174;;;;565699;249;23130;-82
2022/07/01 04:51:48;;;;;;;6.37;5.78;;;34.00;99.90;33.10;100171;;;;571800;247;24162;-82
2022/07/01 04:54:13;;;;;;;8.50;6.00;;;33.90;99.90;33.90;100167;;;;565022;250;23131;-82
2022/07/01 04:56:41;;;;;;;9.93;6.35;;;34.90;96.80;34.70;100170;;;;584301;245;23084;-82
2022/07/01 04:59:09;;;;;;;6.60;5.72;;;36.50;89.30;35.60;100166;;;;575369;245;23115;-82
2022/07/01 05:01:38;;;;;;;6.28;5.78;;;37.10;85.20;36.10;100175;;;;575259;245;23096;-81
2022/07/01 05:04:06;;;;;;;7.70;6.57;;;37.00;85.00;36.80;100170;;;;585473;245;23131;-81
2022/07/01 05:06:34;;;;;;;7.35;6.10;;;37.70;79.40;37.50;100176;;;;575274;245;23087;-81
2022/07/01 05:09:05;;;;;;;10.40;5.62;;;38.40;72.20;37.90;100175;;;;585568;245;23088;-81
2022/07/01 05:11:30;;;;;;;8.30;5.57;;;38.80;71.70;38.30;100180;;;;575358;245;23100;-80
2022/07/01 05:13:58;;;;;;;6.40;5.72;;;39.30;68.90;38.90;100182;;;;585644;245;23122;-79
2022/07/01 05:16:25;;;;;;;13.38;5.55;;;39.90;67.90;39.50;100178;;;;575378;245;23113;-80
2022/07/01 05:24:27;;;;;;;15.27;6.78;;;41.50;60.60;41.10;100190;;;;564277;250;23117;-81
2022/07/01 05:26:57;;;;;;;13.35;6.82;;;42.10;58.30;41.90;100201;;;;573624;250;23125;-81
2022/07/01 05:29:21;;;;;;;9.15;5.22;;;42.60;54.20;42.10;100198;;;;575310;245;23099;-81
2022/07/01 05:31:49;;;;;;;12.80;5.65;;;43.00;54.90;42.60;100206;;;;586504;245;23132;-79
2022/07/01 05:34:17;;;;;;;13.00;6.25;;;43.40;55.20;43.10;100209;;;;569766;247;23149;-79
2022/07/01 05:36:45;;;;;;;7.15;5.30;;;43.90;53.20;43.60;100218;;;;565456;249;23107;-80
2022/07/01 05:39:13;;;;;;;9.75;5.28;;;44.30;52.60;43.90;100213;;;;571743;247;23126;-81
2022/07/01 05:41:41;;;;;;;8.80;5.05;;;44.70;51.10;44.30;100212;;;;565134;249;23118;-81
2022/07/01 05:44:09;;;;;;;6.60;5.40;;;45.10;50.90;44.80;100211;;;;571592;247;24156;-81
2022/07/01 05:46:37;;;;;;;6.40;5.12;;;45.60;49.80;45.40;100223;;;;565085;249;23114;-80
2022/07/01 05:49:05;;;;;;;6.15;5.05;;;46.10;48.70;45.90;100221;;;;571613;243;23160;-82
2022/07/01 05:51:33;;;;;;;7.93;5.03;;;46.60;47.40;46.30;100226;;;;564033;249;24131;-80
2022/07/01 05:54:00;;;;;;;6.90;5.40;;;47.00;47.40;46.90;100237;;;;582155;242;23061;-81
2022/07/01 05:56:28;;;;;;;26.87;7.18;;;47.50;46.50;47.20;100250;;;;565658;250;23140;-80
2022/07/01 05:58:57;;;;;;;11.23;5.85;;;47.70;42.90;46.70;100261;;;;571089;245;46169;-83
2022/07/01 06:01:25;;;;;;;12.90;7.90;;;47.70;42.90;45.50;100269;;;;585944;245;23092;-81
2022/07/01 06:03:53;;;;;;;15.68;6.82;;;46.90;45.30;43.80;100271;;;;575470;245;23083;-82
2022/07/01 06:06:21;;;;;;;12.50;7.57;;;45.50;46.80;42.90;100277;;;;575494;245;23092;-81
2022/07/01 06:08:49;;;;;;;8.57;7.62;;;44.50;48.40;42.60;100279;;;;575579;245;24132;-81
2022/07/01 06:11:17;;;;;;;8.90;7.97;;;44.00;49.10;42.00;100275;;;;585748;244;23076;-81
2022/07/01 06:13:45;;;;;;;9.90;7.12;;;43.30;49.40;41.60;100272;;;;575555;245;23072;-80
2022/07/01 06:16:13;;;;;;;13.50;8.75;;;42.80;50.50;41.50;100274;;;;580605;245;35397;-83
2022/07/01 06:18:40;;;;;;;11.27;7.40;;;42.60;51.10;40.90;100265;;;;575243;245;23100;-82
2022/07/01 06:21:08;;;;;;;7.57;6.82;;;42.10;51.60;41.20;100260;;;;585884;245;23148;-83
2022/07/01 06:23:37;;;;;;;10.57;7.05;;;42.00;52.10;41.90;100262;;;;575929;245;23085;-83
2022/07/01 06:26:05;;;;;;;7.87;6.68;;;43.10;50.60;42.60;100258;;;;586219;245;24141;-82
2022/07/01 06:28:35;;;;;;;10.35;8.13;;;43.80;49.90;43.40;100262;;;;576133;245;23090;-79
2022/07/01 06:31:02;;;;;;;8.45;7.22;;;44.60;48.60;44.20;100256;;;;585731;241;23106;-81
2022/07/01 06:33:31;;;;;;;8.85;7.00;;;44.90;47.80;44.30;100257;;;;575266;245;23085;-81
2022/07/01 06:36:00;;;;;;;8.70;6.45;;;45.40;47.50;45.00;100256;;;;585686;245;23125;-80
2022/07/01 06:38:28;;;;;;;9.70;7.03;;;45.30;47.40;45.60;100255;;;;575365;245;23088;-81
2022/07/01 06:43:43;;;;;;;8.48;6.43;;;46.60;46.30;47.30;100257;;;;575274;245;23078;-82
2022/07/01 06:46:10;;;;;;;14.57;6.87;;;47.50;44.80;47.70;100264;;;;569165;247;24155;-83
2022/07/01 06:48:37;;;;;;;14.63;6.37;;;48.10;44.30;47.80;100262;;;;586894;240;23080;-82
2022/07/01 06:51:05;;;;;;;10.30;5.80;;;48.30;43.90;48.50;100249;;;;584641;242;23076;-82
2022/07/01 06:53:33;;;;;;;11.93;6.35;;;48.80;42.90;49.00;100257;;;;564430;250;23138;-81
2022/07/01 06:56:01;;;;;;;9.73;5.93;;;49.40;41.70;49.20;100260;;;;574915;245;23087;-81
2022/07/01 06:58:33;;;;;;;14.82;5.90;;;49.90;41.60;49.40;100256;;;;585167;245;24158;-82
2022/07/01 07:01:01;;;;;;;9.40;5.78;;;50.30;40.40;49.90;100259;;;;571138;247;23098;-81
2022/07/01 07:03:26;;;;;;;9.50;5.32;;;50.30;40.40;50.10;100250;;;;563751;250;23141;-80
2022/07/01 07:05:55;;;;;;;14.73;5.60;;;50.90;38.80;50.40;100253;;;;583723;242;23044;-82
2022/07/01 07:08:23;;;;;;;9.55;5.03;;;50.80;38.70;50.30;100256;;;;565307;250;23124;-82
2022/07/01 07:10:51;;;;;;;11.12;5.15;;;51.00;39.70;50.60;100266;;;;575605;245;23140;-81
2022/07/01 07:13:19;;;;;;;21.37;5.35;;;51.00;39.30;51.30;100259;;;;586093;244;23095;-81
2022/07/01 07:15:47;;;;;;;8.05;5.05;;;51.50;38.90;50.30;100261;;;;569289;247;24151;-80
2022/07/01 07:18:15;;;;;;;11.35;5.40;;;51.30;37.90;49.00;100270;;;;564297;250;23121;-81
2022/07/01 07:20:43;;;;;;;14.15;5.53;;;50.10;39.00;48.60;100266;;;;581271;242;23139;-81
2022/07/01 07:23:10;;;;;;;8.15;5.28;;;49.60;40.00;48.60;100270;;;;573213;249;23159;-82
2022/07/01 07:25:38;;;;;;;6.78;4.68;;;49.40;39.10;48.00;100271;;;;575088;245;23129;-81
2022/07/01 07:28:06;;;;;;;6.57;4.87;;;49.00;39.60;46.70;100271;;;;575081;245;23154;-80
2022/07/01 07:30:34;;;;;;;7.30;5.03;;;48.10;39.90;46.60;100274;;;;575546;245;23080;-81
2022/07/01 07:33:02;;;;;;;5.37;4.60;;;47.50;40.80;45.20;100274;;;;575539;245;23080;-81
2022/07/01 07:35:30;;;;;;;5.55;4.45;;;46.50;39.70;43.00;100274;;;;564014;250;23162;-81
2022/07/01 07:37:58;;;;;;;6.70;4.53;;;44.60;42.10;42.50;100279;;;;586031;245;24132;-81
2022/07/01 07:40:27;;;;;;;16.65;5.95;;;42.50;45.00;41.20;100278;;;;569459;247;23167;-81
2022/07/01 07:42:55;;;;;;;10.07;5.18;;;41.60;46.80;40.70;100273;;;;579901;247;23098;-82
2022/07/01 07:45:23;;;;;;;7.45;4.65;;;41.60;46.70;40.40;100270;;;;564926;249;23133;-81
2022/07/01 07:47:54;;;;;;;7.37;5.30;;;41.20;47.30;40.10;100276;;;;571615;247;24117;-81
2022/07/01 07:50:19;;;;;;;13.70;5.30;;;40.80;48.30;39.40;100281;;;;563868;250;23123;-81
2022/07/01 07:52:47;;;;;;;29.08;6.72;;;40.20;48.30;38.30;100277;;;;580865;242;23064;-82
2022/07/01 07:55:15;;;;;;;10.40;5.50;;;39.20;49.70;38.40;100280;;;;564208;250;23120;-82
2022/07/01 07:57:43;;;;;;;7.55;5.10;;;38.90;50.80;39.40;100284;;;;574784;245;24189;-82
2022/07/01 08:00:15;;;;;;;7.10;5.28;;;39.50;50.70;41.00;100282;;;;585315;245;23171;-80
2022/07/01 08:02:39;;;;;;;6.78;5.62;;;40.90;49.30;42.10;100277;;;;564300;250;23250;-81
2022/07/01 08:05:11;;;;;;;12.57;5.95;;;42.10;47.30;43.60;100276;;;;574807;245;23081;-80
2022/07/01 08:07:41;;;;;;;12.57;5.82;;;43.50;45.80;44.60;100277;;;;563700;250;23140;-81
2022/07/01 08:10:09;;;;;;;11.48;5.10;;;44.70;44.30;45.80;100275;;;;575240;245;23092;-82
2022/07/01 08:12:36;;;;;;;9.85;5.70;;;45.90;43.40;46.80;100275;;;;573336;250;23131;-82
2022/07/01 08:15:05;;;;;;;7.47;4.75;;;47.80;41.70;47.10;100272;;;;571222;247;23105;-82
2022/07/01 08:17:33;;;;;;;5.80;5.37;;;47.70;41.70;46.90;100264;;;;576275;245;23093;-82
2022/07/01 08:20:01;;;;;;;5.93;5.32;;;47.70;41.50;47.10;100267;;;;576000;245;23123;-82
2022/07/01 08:22:30;;;;;;;8.82;5.57;;;47.90;41.50;47.00;100271;;;;569673;247;23097;-81
2022/07/01 08:24:59;;;;;;;17.23;6.22;;;47.40;41.40;46.50;100275;;;;565348;249;23132;-81
2022/07/01 08:27:30;;;;;;;11.63;6.05;;;47.40;41.90;46.70;100274;;;;571886;247;23084;-82
2022/07/01 08:29:56;;;;;;;8.13;5.10;;;47.70;41.40;47.10;100278;;;;571398;247;23115;-81
2022/07/01 08:32:26;;;;;;;6.43;5.53;;;47.70;41.40;47.80;100275;;;;565684;249;23131;-81
2022/07/01 08:34:53;;;;;;;5.87;5.37;;;48.20;41.70;47.90;100270;;;;565652;250;23150;-81
2022/07/01 08:37:20;;;;;;;5.18;4.65;;;48.60;41.20;48.00;100269;;;;575883;245;23083;-80
2022/07/01 08:39:48;;;;;;;5.87;5.30;;;48.60;40.70;48.30;100274;;;;576028;245;23110;-80
2022/07/01 08:42:15;;;;;;;8.60;5.82;;;49.00;40.10;47.90;100269;;;;586144;245;24174;-82
2022/07/01 08:44:46;;;;;;;7.60;5.70;;;49.00;40.00;48.30;100270;;;;575635;245;23124;-83
2022/07/01 08:47:11;;;;;;;8.60;6.30;;;49.10;40.00;48.50;100266;;;;564001;250;23148;-84
2022/07/01 08:49:43;;;;;;;5.55;5.05;;;49.40;40.00;49.10;100269;;;;580710;243;23118;-83
2022/07/01 08:52:09;;;;;;;9.23;5.70;;;49.80;40.40;49.50;100264;;;;565137;250;23186;-81
2022/07/01 08:54:37;;;;;;;15.95;6.97;;;50.70;39.40;49.90;100262;;;;586793;245;23069;-81
2022/07/01 08:57:07;;;;;;;6.60;6.07;;;51.00;39.00;50.10;100262;;;;574235;250;23131;-83
2022/07/01 08:59:32;;;;;;;7.00;6.12;;;51.00;39.00;50.00;100265;;;;575227;245;23208;-83
2022/07/01 09:02:01;;;;;;;8.93;6.28;;;51.30;38.60;50.30;100257;;;;585866;245;23197;-83
2022/07/01 09:04:30;;;;;;;7.65;6.68;;;51.10;38.90;49.80;100261;;;;569390;247;23104;-82
2022/07/01 09:07:03;;;;;;;7.78;6.68;;;51.10;38.80;49.00;100261;;;;571014;247;23094;-83
2022/07/01 09:09:31;;;;;;;9.77;6.40;;;50.40;39.20;48.20;100264;;;;564287;250;23131;-83
2022/07/01 09:12:03;;;;;;;9.20;6.70;;;49.80;40.20;47.80;100265;;;;573391;244;23135;-81
2022/07/01 09:14:30;;;;;;;11.35;6.80;;;49.30;41.00;47.40;100268;;;;570838;247;23093;-84
2022/07/01 09:17:01;;;;;;;7.18;5.95;;;48.90;41.10;47.60;100271;;;;564353;249;23143;-81
2022/07/01 09:19:29;;;;;;;7.57;6.43;;;48.80;41.10;47.70;100267;;;;571331;247;23203;-81
2022/07/01 09:22:00;;;;;;;17.27;6.47;;;49.00;41.00;48.10;100264;;;;563957;250;23125;-80
2022/07/01 09:24:43;;;;;;;7.93;6.62;;;49.20;41.10;48.70;100277;;;;582228;242;23102;-81
2022/07/01 09:27:13;;;;;;;7.87;6.95;;;49.60;40.70;48.50;100268;;;;564501;250;23142;-81
2022/07/01 09:29:39;;;;;;;10.07;6.75;;;49.60;40.30;47.50;100272;;;;582271;244;23101;-82
2022/07/01 09:32:07;;;;;;;7.43;6.72;;;48.50;41.40;47.10;100269;;;;565972;249;24138;-81
2022/07/01 09:34:45;;;;;;;7.55;6.70;;;48.20;41.90;46.90;100261;;;;565372;250;23125;-83
2022/07/01 09:37:17;;;;;;;15.80;6.57;;;48.20;41.90;46.50;100268;;;;584731;242;23093;-83
2022/07/01 09:39:51;;;;;;;9.68;6.75;;;47.80;42.40;47.20;100270;;;;574546;247;23141;-81
2022/07/01 09:42:17;;;;;;;8.15;6.57;;;48.10;42.20;47.30;100255;;;;570543;250;23143;-81
2022/07/01 09:44:59;;;;;;;8.43;6.28;;;48.30;41.90;47.60;100266;;;;575836;245;23141;-83
2022/07/01 09:47:30;;;;;;;16.37;7.30;;;48.50;41.80;47.90;100267;;;;568921;244;23108;-82
2022/07/01 09:49:55;;;;;;;7.72;7.12;;;48.80;41.50;48.00;100263;;;;564578;250;23161;-80
2022/07/01 09:52:25;;;;;;;17.02;7.62;;;49.10;41.50;48.20;100267;;;;575252;245;23145;-83
2022/07/01 09:54:50;;;;;;;6.82;6.22;;;49.50;41.10;46.70;100256;;;;571319;247;23110;-81
2022/07/01 09:57:18;;;;;;;7.55;6.32;;;48.50;41.30;46.30;100247;;;;571816;247;24100;-83
2022/07/01 09:59:50;;;;;;;8.98;7.12;;;47.90;42.60;46.80;100254;;;;584237;245;23071;-83
2022/07/01 10:02:14;;;;;;;13.90;7.18;;;48.10;42.80;46.90;100252;;;;575008;245;23142;-83
2022/07/01 10:05:04;;;;;;;10.32;6.80;;;48.20;42.40;47.30;100262;;;;575352;245;23092;-83
2022/07/01 10:08:00;;;;;;;9.52;7.18;;;48.50;42.20;46.40;100274;;;;571554;247;23105;-81
2022/07/01 10:10:49;;;;;;;10.32;7.85;;;48.10;42.30;43.40;100281;;;;579372;246;23151;-83
2022/07/01 10:13:13;;;;;;;8.52;7.72;;;45.90;44.20;40.20;100292;;;;571029;247;23109;-82
2022/07/01 10:15:42;;;;;;;11.73;8.32;;;40.00;61.40;37.60;100293;;;;575138;245;23131;-81
2022/07/01 10:18:23;;;;;;;17.50;10.18;;;36.70;78.00;34.10;100290;;;;564033;250;23151;-81
2022/07/01 10:20:49;;;;;;;12.30;9.23;;;33.20;90.20;30.60;100293;;;;574338;245;23143;-80
2022/07/01 10:23:17;;;;;;;14.77;9.63;;;30.60;99.90;28.50;100312;;;;568676;247;24164;-80
2022/07/01 10:25:48;;;;;;;12.27;9.95;;;30.40;99.90;27.40;100312;;;;563919;250;23257;-81
2022/07/01 10:28:28;;;;;;;17.95;11.98;;;28.80;99.90;26.80;100307;;;;574701;245;23126;-82
2022/07/01 10:31:27;;;;;;;14.50;11.70;;;27.80;99.90;27.20;100309;;;;569320;250;23191;-82
2022/07/01 10:33:54;;;;;;;14.20;12.70;;;27.60;99.90;27.50;100288;;;;572139;248;24134;-82
2022/07/01 10:36:31;;;;;;;27.83;14.00;;;27.90;99.90;28.60;100297;;;;575137;245;23090;-82
2022/07/01 10:39:06;;;;;;;16.30;13.18;;;30.40;99.90;30.10;100296;;;;564647;248;27431;-82
2022/07/01 10:41:32;;;;;;;14.23;12.88;;;30.60;99.90;31.30;100293;;;;576658;241;23094;-82
2022/07/01 10:43:57;;;;;;;14.25;12.43;;;32.10;99.90;31.90;100288;;;;565004;250;23177;-82
2022/07/01 10:46:58;;;;;;;13.62;12.37;;;32.80;99.90;32.10;100277;;;;572167;247;23097;-80
2022/07/01 10:49:42;;;;;;;14.63;13.15;;;33.20;99.90;32.20;100274;;;;575489;245;24152;-81
2022/07/01 10:52:10;;;;;;;13.98;12.70;;;33.10;99.90;31.70;100276;;;;575098;245;23086;-81
2022/07/01 10:54:43;;;;;;;21.17;13.93;;;32.70;99.90;31.50;100298;;;;571431;247;23104;-81
2022/07/01 10:57:24;;;;;;;17.48;14.15;;;32.40;99.90;31.10;100319;;;;573494;249;23127;-81
2022/07/01 11:00:00;;;;;;;14.63;13.25;;;32.00;99.90;30.60;100317;;;;564711;250;23206;-81
2022/07/01 11:02:28;;;;;;;16.10;14.60;;;31.50;99.90;30.40;100286;;;;573223;247;23213;-81
2022/07/01 11:05:03;;;;;;;13.52;12.43;;;31.20;99.90;30.60;100266;;;;571271;247;23106;-81
2022/07/01 11:07:28;;;;;;;13.18;10.93;;;31.20;99.90;30.90;100255;;;;570351;247;23136;-81
2022/07/01 11:09:59;;;;;;;14.32;9.10;;;31.40;99.90;31.10;100260;;;;571558;247;23131;-81
2022/07/01 11:12:23;;;;;;;11.12;10.10;;;31.70;99.90;31.40;100249;;;;583768;241;23126;-81
2022/07/01 11:14:51;;;;;;;17.50;10.20;;;31.90;99.90;31.70;100246;;;;575799;245;23150;-81
2022/07/01 11:17:20;;;;;;;13.00;9.82;;;32.40;98.40;31.90;100245;;;;571240;247;23124;-83
2022/07/01 11:19:54;;;;;;;10.70;8.32;;;32.40;98.40;31.90;100246;;;;580383;247;23093;-82
2022/07/01 11:22:28;;;;;;;8.80;7.60;;;32.40;96.90;32.00;100237;;;;583718;242;23143;-82
2022/07/01 11:24:59;;;;;;;9.85;8.43;;;32.50;96.40;32.30;100234;;;;574753;245;24124;-83
2022/07/01 11:27:29;;;;;;;8.15;7.45;;;32.70;94.80;32.60;100236;;;;574189;247;24096;-83